createdAt,value
2022-10-09T00:02:02.269Z,12.32
2022-10-09T00:05:05.991Z,11.52
2022-10-09T00:08:09.314Z,11.70
2022-10-09T00:11:16.614Z,11.03
2022-10-09T00:14:19.915Z,11.43
2022-10-09T00:17:23.135Z,11.40
2022-10-09T00:20:26.347Z,13.75
2022-10-09T00:23:29.528Z,13.25
2022-10-09T00:26:33.245Z,11.87
2022-10-09T00:29:36.497Z,12.48
2022-10-09T00:32:39.752Z,13.35
2022-10-09T00:35:43.547Z,13.32
2022-10-09T00:38:47.136Z,14.50
2022-10-09T00:41:50.233Z,13.00
2022-10-09T00:45:00.201Z,12.57
2022-10-09T00:48:07.222Z,12.52
2022-10-09T00:51:10.657Z,12.20
2022-10-09T00:54:16.100Z,12.27
2022-10-09T00:57:19.534Z,12.33
2022-10-09T01:00:23.112Z,12.88
2022-10-09T01:03:26.319Z,12.65
2022-10-09T01:06:56.707Z,12.80
2022-10-09T01:10:17.365Z,13.75
2022-10-09T01:13:32.546Z,12.63
2022-10-09T01:17:13.648Z,12.40
2022-10-09T01:20:25.705Z,12.02
2022-10-09T01:24:05.872Z,12.90
2022-10-09T01:27:23.781Z,12.77
2022-10-09T01:30:27.428Z,12.77
2022-10-09T01:33:32.777Z,12.73
2022-10-09T01:36:37.198Z,13.30
2022-10-09T01:39:42.918Z,13.68
2022-10-09T01:42:49.291Z,13.05
2022-10-09T01:45:52.794Z,12.67
2022-10-09T01:49:14.724Z,12.85
2022-10-09T01:52:55.460Z,13.80
2022-10-09T01:56:09.059Z,14.23
2022-10-09T01:59:16.209Z,14.40
2022-10-09T02:02:20.506Z,14.43
2022-10-09T02:05:27.567Z,14.77
2022-10-09T02:08:34.412Z,15.25
2022-10-09T02:11:39.769Z,14.80
2022-10-09T02:14:42.879Z,14.75
2022-10-09T02:17:49.560Z,15.03
2022-10-09T02:20:56.766Z,15.95
2022-10-09T02:24:02.008Z,14.60
2022-10-09T02:27:06.178Z,14.75
2022-10-09T02:30:10.859Z,16.33
2022-10-09T02:33:13.993Z,15.80
2022-10-09T02:36:17.143Z,15.23
2022-10-09T02:39:20.276Z,14.32
2022-10-09T02:42:23.452Z,15.65
2022-10-09T02:45:26.620Z,13.80
2022-10-09T02:48:29.749Z,15.13
2022-10-09T02:51:33.168Z,14.80
2022-10-09T02:54:36.262Z,13.90
2022-10-09T02:57:39.422Z,14.30
2022-10-09T03:00:42.652Z,14.73
2022-10-09T03:03:45.878Z,14.70
2022-10-09T03:06:48.984Z,14.80
2022-10-09T03:09:52.778Z,14.90
2022-10-09T03:12:55.878Z,14.55
2022-10-09T03:16:10.912Z,14.45
2022-10-09T03:19:14.112Z,15.40
2022-10-09T03:22:17.205Z,14.20
2022-10-09T03:25:20.746Z,13.65
2022-10-09T03:28:24.259Z,13.52
2022-10-09T03:31:50.786Z,13.70
2022-10-09T03:34:51.163Z,13.90
2022-10-09T03:37:54.272Z,14.13
2022-10-09T03:41:00.001Z,14.25
2022-10-09T03:44:03.100Z,15.20
2022-10-09T03:47:06.340Z,14.52
2022-10-09T03:50:09.809Z,13.43
2022-10-09T03:53:13.904Z,13.55
2022-10-09T03:56:17.036Z,14.30
2022-10-09T03:59:20.211Z,14.07
2022-10-09T04:02:23.468Z,14.15
2022-10-09T04:05:26.892Z,13.70
2022-10-09T04:08:30.023Z,14.43
2022-10-09T04:11:33.212Z,14.18
2022-10-09T04:14:36.364Z,13.85
2022-10-09T04:17:39.482Z,14.98
2022-10-09T04:20:49.413Z,14.13
2022-10-09T04:23:52.721Z,13.77
2022-10-09T04:26:56.945Z,14.05
2022-10-09T04:30:00.116Z,14.55
2022-10-09T04:33:03.365Z,14.32
2022-10-09T04:36:06.765Z,15.03
2022-10-09T04:39:09.931Z,15.57
2022-10-09T04:42:13.068Z,14.15
2022-10-09T04:45:16.316Z,14.57
2022-10-09T04:48:19.718Z,14.45
2022-10-09T04:51:22.976Z,15.03
2022-10-09T04:54:26.126Z,14.50
2022-10-09T04:57:29.227Z,14.43
2022-10-09T05:00:32.464Z,14.25
2022-10-09T05:03:36.542Z,15.25
2022-10-09T05:06:39.709Z,15.27
2022-10-09T05:09:43.117Z,15.43
2022-10-09T05:12:46.534Z,15.00
2022-10-09T05:15:49.857Z,14.48
2022-10-09T05:18:56.203Z,13.80
2022-10-09T05:22:00.639Z,14.47
2022-10-09T05:25:04.211Z,15.02
2022-10-09T05:28:07.356Z,14.48
2022-10-09T05:31:15.321Z,14.63
2022-10-09T05:34:23.476Z,13.93
2022-10-09T05:37:26.655Z,15.07
2022-10-09T05:40:29.753Z,14.30
2022-10-09T05:43:35.832Z,14.55
2022-10-09T05:46:38.911Z,14.70
2022-10-09T05:49:42.067Z,15.80
2022-10-09T05:52:45.255Z,14.90
2022-10-09T05:55:48.380Z,14.98
2022-10-09T05:59:05.096Z,14.07
2022-10-09T06:02:09.246Z,14.75
2022-10-09T06:05:12.369Z,15.80
2022-10-09T06:08:15.513Z,14.60
2022-10-09T06:11:20.107Z,14.32
2022-10-09T06:14:24.492Z,15.00
2022-10-09T06:17:27.703Z,14.43
2022-10-09T06:20:30.999Z,13.85
2022-10-09T06:23:34.551Z,13.77
2022-10-09T06:26:37.952Z,14.55
2022-10-09T06:29:41.129Z,14.43
2022-10-09T06:32:44.293Z,14.55
2022-10-09T06:35:47.502Z,15.05
2022-10-09T06:38:51.457Z,15.17
2022-10-09T06:41:54.672Z,15.07
2022-10-09T06:45:20.444Z,15.68
2022-10-09T06:48:23.540Z,15.07
2022-10-09T06:51:30.756Z,17.00
2022-10-09T06:54:34.032Z,16.20
2022-10-09T06:57:38.249Z,16.48
2022-10-09T07:00:47.441Z,17.27
2022-10-09T07:03:58.003Z,16.77
2022-10-09T07:07:02.811Z,16.65
2022-10-09T07:10:06.501Z,17.13
2022-10-09T07:13:09.660Z,17.40
2022-10-09T07:16:12.878Z,17.02
2022-10-09T07:19:18.268Z,17.00
2022-10-09T07:22:26.129Z,16.42
2022-10-09T07:25:30.038Z,17.37
2022-10-09T07:28:33.566Z,17.13
2022-10-09T07:31:37.069Z,16.80
2022-10-09T07:34:40.248Z,16.52
2022-10-09T07:37:43.425Z,15.48
2022-10-09T07:40:46.729Z,15.13
2022-10-09T07:43:50.396Z,15.35
2022-10-09T07:46:53.524Z,15.02
2022-10-09T07:49:57.183Z,15.23
2022-10-09T07:53:00.363Z,14.13
2022-10-09T07:56:04.520Z,13.77
2022-10-09T07:59:13.384Z,13.60
2022-10-09T08:02:16.853Z,13.25
2022-10-09T08:05:19.952Z,13.60
2022-10-09T08:08:23.212Z,12.90
2022-10-09T08:11:28.096Z,13.07
2022-10-09T08:14:31.189Z,12.38
2022-10-09T08:17:34.381Z,12.60
2022-10-09T08:20:37.893Z,12.30
2022-10-09T08:23:41.184Z,13.00
2022-10-09T08:26:44.611Z,12.60
2022-10-09T08:29:47.988Z,12.77
2022-10-09T08:32:51.522Z,12.55
2022-10-09T08:35:55.148Z,13.23
2022-10-09T08:38:59.152Z,12.13
2022-10-09T08:42:03.363Z,12.77
2022-10-09T08:45:13.666Z,12.60
2022-10-09T08:48:22.128Z,13.55
2022-10-09T08:51:29.565Z,13.55
2022-10-09T08:54:36.049Z,13.90
2022-10-09T08:57:40.195Z,13.20
2022-10-09T09:01:22.075Z,12.52
2022-10-09T09:04:38.448Z,12.73
2022-10-09T09:07:44.573Z,13.27
2022-10-09T09:10:57.539Z,13.55
2022-10-09T09:14:29.518Z,13.33
2022-10-09T09:17:51.208Z,14.07
2022-10-09T09:20:57.273Z,13.77
2022-10-09T09:24:03.009Z,13.70
2022-10-09T09:27:20.106Z,14.48
2022-10-09T09:30:37.771Z,14.13
2022-10-09T09:33:49.296Z,14.55
2022-10-09T09:36:59.184Z,13.90
2022-10-09T09:43:27.013Z,14.60
2022-10-09T09:46:32.405Z,14.37
2022-10-09T09:49:35.600Z,14.15
2022-10-09T09:52:43.593Z,14.88
2022-10-09T09:55:51.237Z,13.95
2022-10-09T09:58:54.566Z,13.75
2022-10-09T10:02:17.143Z,13.93
2022-10-09T10:05:27.649Z,13.90
2022-10-09T10:08:34.719Z,14.23
2022-10-09T10:11:43.051Z,14.25
2022-10-09T10:14:50.889Z,14.38
2022-10-09T10:18:13.113Z,14.33
2022-10-09T10:21:19.016Z,13.80
2022-10-09T10:24:27.721Z,13.60
2022-10-09T10:27:42.682Z,11.85
2022-10-09T10:30:46.234Z,11.00
2022-10-09T10:33:55.719Z,11.27
2022-10-09T10:37:22.607Z,10.00
2022-10-09T10:40:37.829Z,9.43
2022-10-09T10:44:09.501Z,9.48
2022-10-09T10:47:19.746Z,9.43
2022-10-09T10:50:37.247Z,8.50
2022-10-09T10:53:58.739Z,8.88
2022-10-09T10:57:32.458Z,8.98
2022-10-09T11:00:43.146Z,9.32
2022-10-09T11:04:23.653Z,8.82
2022-10-09T11:07:49.312Z,7.83
2022-10-09T11:11:01.647Z,9.30
2022-10-09T11:14:27.981Z,9.00
2022-10-09T11:17:54.416Z,7.95
2022-10-09T11:21:23.133Z,7.45
2022-10-09T11:24:45.663Z,7.77
2022-10-09T11:27:54.780Z,7.88
2022-10-09T11:31:06.523Z,9.70
2022-10-09T11:34:40.388Z,9.32
2022-10-09T11:37:48.410Z,9.05
2022-10-09T11:40:52.417Z,8.70
2022-10-09T11:44:35.152Z,9.57
2022-10-09T11:47:59.376Z,9.73
2022-10-09T11:51:16.796Z,8.68
2022-10-09T11:54:22.488Z,8.73
2022-10-09T11:57:29.675Z,8.60
2022-10-09T12:00:41.264Z,8.30
2022-10-09T12:03:44.668Z,8.02
2022-10-09T12:06:49.486Z,8.15
2022-10-09T12:10:16.731Z,7.78
2022-10-09T12:13:38.764Z,6.80
2022-10-09T12:16:45.318Z,6.90
2022-10-09T12:20:04.927Z,6.65
2022-10-09T12:23:27.422Z,6.65
2022-10-09T12:26:31.800Z,6.95
2022-10-09T12:29:57.436Z,7.43
2022-10-09T12:33:17.228Z,6.68
2022-10-09T12:36:26.468Z,7.07
2022-10-09T12:39:33.701Z,6.55
2022-10-09T12:42:37.010Z,6.07
2022-10-09T12:45:45.257Z,5.90
2022-10-09T12:48:48.590Z,6.32
2022-10-09T12:51:57.269Z,6.35
2022-10-09T12:55:02.592Z,5.70
2022-10-09T12:58:31.671Z,5.50
2022-10-09T13:01:35.729Z,5.70
2022-10-09T13:04:38.997Z,5.10
2022-10-09T13:07:45.283Z,5.40
2022-10-09T13:10:51.933Z,5.60
2022-10-09T13:13:56.324Z,5.10
2022-10-09T13:16:59.579Z,5.20
2022-10-09T13:20:16.755Z,5.18
2022-10-09T13:23:35.822Z,4.95
2022-10-09T13:26:42.508Z,5.20
2022-10-09T13:29:47.642Z,5.53
2022-10-09T13:32:50.879Z,4.93
2022-10-09T13:35:53.961Z,5.50
2022-10-09T13:38:57.028Z,5.40
2022-10-09T13:42:01.964Z,4.90
2022-10-09T13:45:06.313Z,5.97
2022-10-09T13:48:09.540Z,5.80
2022-10-09T13:51:12.760Z,5.53
2022-10-09T13:54:15.851Z,5.90
2022-10-09T13:57:19.116Z,6.75
2022-10-09T14:00:22.849Z,6.40
2022-10-09T14:03:26.361Z,6.47
2022-10-09T14:06:29.597Z,5.97
2022-10-09T14:09:32.982Z,6.55
2022-10-09T14:12:36.501Z,7.13
2022-10-09T14:15:40.930Z,7.40
2022-10-09T14:18:47.756Z,7.17
2022-10-09T14:21:50.896Z,7.57
2022-10-09T14:24:54.057Z,7.07
2022-10-09T14:27:57.175Z,7.60
2022-10-09T14:31:04.252Z,7.28
2022-10-09T14:34:07.412Z,7.60
2022-10-09T14:37:23.929Z,7.50
2022-10-09T14:40:33.679Z,7.82
2022-10-09T14:43:36.971Z,7.47
2022-10-09T14:46:40.211Z,8.10
2022-10-09T14:49:43.439Z,8.00
2022-10-09T14:52:48.116Z,8.48
2022-10-09T14:55:51.360Z,8.32
2022-10-09T14:58:54.874Z,8.05
2022-10-09T15:01:59.039Z,8.20
2022-10-09T15:05:02.162Z,8.63
2022-10-09T15:08:05.408Z,7.72
2022-10-09T15:11:10.845Z,8.10
2022-10-09T15:14:14.097Z,7.60
2022-10-09T15:17:17.232Z,7.50
2022-10-09T15:20:21.260Z,7.33
2022-10-09T15:23:24.453Z,7.30
2022-10-09T15:26:29.487Z,7.53
2022-10-09T15:29:32.803Z,7.28
2022-10-09T15:32:36.285Z,7.93
2022-10-09T15:35:39.459Z,7.60
2022-10-09T15:38:42.656Z,7.22
2022-10-09T15:41:47.236Z,7.50
2022-10-09T15:44:50.403Z,7.38
2022-10-09T15:47:53.516Z,7.07
2022-10-09T15:50:56.819Z,7.43
2022-10-09T15:54:03.880Z,7.63
2022-10-09T15:57:07.083Z,7.70
2022-10-09T16:00:11.048Z,7.47
2022-10-09T16:03:15.195Z,8.65
2022-10-09T16:06:23.177Z,8.10
2022-10-09T16:09:26.882Z,8.25
2022-10-09T16:12:30.218Z,8.15
2022-10-09T16:15:41.556Z,8.45
2022-10-09T16:18:45.113Z,8.00
2022-10-09T16:21:50.469Z,7.87
2022-10-09T16:24:53.934Z,9.02
2022-10-09T16:27:57.419Z,8.60
2022-10-09T16:31:00.779Z,8.85
2022-10-09T16:34:05.611Z,8.65
2022-10-09T16:37:08.793Z,9.07
2022-10-09T16:40:12.778Z,10.18
2022-10-09T16:43:16.843Z,10.20
2022-10-09T16:46:23.978Z,10.05
2022-10-09T16:49:27.261Z,9.32
2022-10-09T16:52:30.412Z,8.80
2022-10-09T16:55:33.550Z,7.45
2022-10-09T16:58:36.725Z,7.13
2022-10-09T17:01:43.733Z,6.85
2022-10-09T17:04:47.305Z,6.65
2022-10-09T17:07:51.732Z,5.93
2022-10-09T17:10:55.497Z,5.53
2022-10-09T17:13:59.253Z,5.32
2022-10-09T17:17:02.705Z,5.28
2022-10-09T17:20:06.292Z,5.28
2022-10-09T17:23:10.172Z,4.60
2022-10-09T17:26:16.182Z,4.45
2022-10-09T17:29:19.646Z,4.75
2022-10-09T17:32:23.058Z,4.18
2022-10-09T17:35:26.321Z,4.60
2022-10-09T17:38:29.787Z,4.00
2022-10-09T17:41:33.137Z,3.85
2022-10-09T17:44:36.255Z,3.50
2022-10-09T17:47:39.410Z,3.50
2022-10-09T17:50:54.836Z,3.10
2022-10-09T17:54:01.239Z,3.10
2022-10-09T17:57:06.981Z,3.33
2022-10-09T18:00:11.142Z,3.33
2022-10-09T18:03:15.452Z,2.85
2022-10-09T18:06:20.869Z,3.40
2022-10-09T18:09:24.211Z,2.83
2022-10-09T18:12:27.412Z,2.80
2022-10-09T18:15:30.657Z,3.10
2022-10-09T18:18:34.695Z,2.33
2022-10-09T18:21:43.158Z,2.70
2022-10-09T18:24:46.357Z,2.80
2022-10-09T18:27:49.839Z,2.58
2022-10-09T18:30:53.718Z,2.90
2022-10-09T18:33:58.858Z,3.53
2022-10-09T18:37:02.098Z,2.75
2022-10-09T18:40:06.153Z,2.47
2022-10-09T18:43:10.770Z,2.58
2022-10-09T18:46:15.085Z,2.75
2022-10-09T18:49:21.467Z,3.10
2022-10-09T18:52:24.959Z,2.90
2022-10-09T18:55:28.427Z,3.10
2022-10-09T18:58:32.171Z,2.95
2022-10-09T19:01:35.840Z,3.15
2022-10-09T19:04:39.085Z,3.00
2022-10-09T19:07:42.358Z,2.90
2022-10-09T19:10:51.297Z,3.17
2022-10-09T19:13:55.111Z,2.90
2022-10-09T19:16:58.427Z,3.08
2022-10-09T19:20:01.643Z,2.47
2022-10-09T19:23:05.068Z,2.30
2022-10-09T19:26:08.327Z,2.20
2022-10-09T19:29:11.511Z,2.35
2022-10-09T19:32:14.721Z,2.00
2022-10-09T19:35:18.017Z,1.83
2022-10-09T19:38:22.089Z,1.80
2022-10-09T19:41:25.466Z,1.70
2022-10-09T19:44:28.573Z,1.70
2022-10-09T19:47:31.736Z,1.75
2022-10-09T19:50:40.305Z,1.50
2022-10-09T19:53:43.632Z,1.30
2022-10-09T19:56:46.836Z,1.50
2022-10-09T19:59:50.155Z,1.40
2022-10-09T20:02:53.446Z,1.63
2022-10-09T20:06:00.626Z,1.52
2022-10-09T20:09:05.452Z,1.60
2022-10-09T20:12:09.645Z,1.67
2022-10-09T20:15:12.788Z,1.55
2022-10-09T20:18:16.015Z,1.58
2022-10-09T20:21:22.140Z,1.33
2022-10-09T20:24:25.276Z,1.40
2022-10-09T20:27:29.459Z,1.10
2022-10-09T20:30:32.775Z,1.10
2022-10-09T20:33:37.889Z,1.02
2022-10-09T20:36:41.118Z,1.10
2022-10-09T20:39:44.208Z,1.00
2022-10-09T20:42:47.572Z,1.10
2022-10-09T20:45:50.948Z,0.80
2022-10-09T20:48:54.590Z,0.80
2022-10-09T20:51:57.796Z,1.20
2022-10-09T20:55:00.977Z,0.90
2022-10-09T20:58:04.825Z,1.10
2022-10-09T21:01:10.126Z,1.02
2022-10-09T21:04:14.755Z,1.50
2022-10-09T21:07:18.072Z,1.60
2022-10-09T21:10:21.211Z,1.50
2022-10-09T21:13:24.508Z,1.37
2022-10-09T21:16:27.977Z,1.80
2022-10-09T21:19:31.102Z,1.83
2022-10-09T21:22:34.383Z,1.75
2022-10-09T21:25:37.861Z,1.58
2022-10-09T21:28:41.870Z,1.43
2022-10-09T21:31:45.022Z,1.70
2022-10-09T21:34:48.302Z,1.67
2022-10-09T21:37:51.630Z,1.48
2022-10-09T21:40:54.668Z,1.55
2022-10-09T21:43:57.864Z,1.43
2022-10-09T21:47:00.989Z,1.10
2022-10-09T21:50:04.365Z,1.42
2022-10-09T21:53:07.584Z,1.17
2022-10-09T21:56:10.928Z,1.40
2022-10-09T21:59:14.221Z,1.20
2022-10-09T22:02:17.507Z,1.13
2022-10-09T22:05:20.720Z,1.30
2022-10-09T22:08:24.224Z,1.27
2022-10-09T22:11:27.402Z,1.50
2022-10-09T22:14:31.697Z,1.27
2022-10-09T22:17:34.756Z,1.10
2022-10-09T22:20:42.714Z,1.27
2022-10-09T22:23:46.017Z,1.10
2022-10-09T22:26:49.133Z,1.45
2022-10-09T22:29:52.357Z,1.47
2022-10-09T22:32:55.541Z,1.38
2022-10-09T22:36:08.518Z,1.33
2022-10-09T22:39:12.652Z,1.05
2022-10-09T22:42:15.779Z,0.93
2022-10-09T22:45:18.875Z,1.00
2022-10-09T22:48:22.058Z,1.27
2022-10-09T22:51:27.200Z,1.20
2022-10-09T22:54:30.320Z,1.00
2022-10-09T22:57:33.460Z,1.70
2022-10-09T23:00:37.282Z,1.20
2022-10-09T23:03:40.615Z,1.20
2022-10-09T23:06:44.564Z,1.50
2022-10-09T23:09:47.884Z,1.65
2022-10-09T23:12:51.332Z,1.35
2022-10-09T23:15:54.821Z,1.20
2022-10-09T23:19:02.966Z,1.50
2022-10-09T23:22:08.789Z,1.33
2022-10-09T23:25:11.905Z,1.00
2022-10-09T23:28:15.162Z,1.58
2022-10-09T23:31:19.123Z,1.10
2022-10-09T23:34:22.392Z,1.50
2022-10-09T23:37:25.556Z,1.60
2022-10-09T23:40:29.806Z,1.40
2022-10-09T23:43:35.442Z,1.45
2022-10-09T23:46:38.581Z,1.23
2022-10-09T23:49:41.797Z,1.20
2022-10-09T23:52:45.017Z,1.25
2022-10-09T23:55:48.616Z,1.30
2022-10-09T23:58:52.938Z,1.40
